Shepard, North Dakota
Current Conditions -  °F | °C
As of 11:15 PM on Friday 19 Dec 2014 (Local Time) from KBAC Reporting Station
Haze Haze  
Wind Chill: 19°   Ceiling: 300
Heat Index: 27°   Visibility: 3mi
Dew Point: 27°   Wind: 7mph
Humidity: 100%   Direction: 210°SSW
Pressure: 29.97"   Gusts: NA
Location:  47.4507°N, 98.2031°W
Report Text: KBAC 200515Z AUTO 21006KT 3SM BR OVC003 M03/M03 A2997 RMK AO2
Loading
Personal Weather Stations






























Interactive Weather Map New forecast layout! Learn more

10-Day Weather Forecast

Advertisements
Track Severe Weather on mobile